• Join FlightAware (Why Join?)
  • Login
  • US Flag 
02:56AM EST


 

Airport Tracker/Info


-or-


 

Live Flight TrackerFlight Track Log ✈ QXE2348 ✈ 21-Jul-2014 ✈ KSEA - KMSO

Flight Track Log - Related Links

Times and Time Zones

All times are in EDT time to prevent confusion due to time zone crossing. See the QXE2348 flight status page for this flight to view local times or setup timezone preferences in your user account.

Time Position Orientation Groundspeed Altitude Reporting Facility
EDT Latitude Longitude Course Direction KTS MPH feet Rate Location/Type
01:51PM 47.4167 -121.3861 90° East  Level FlightAware Approximate
01:52PM 47.4167 -121.2551 90° East  Level FlightAware Approximate
01:53PM 47.4167 -121.1240 90° East  Level FlightAware Approximate
01:54PM 47.4167 -120.9930 90° East  Level FlightAware Approximate
01:55PM 47.4100 -120.8624 95° East  Level FlightAware Approximate
01:56PM 47.4027 -120.7318 95° East  Level FlightAware Approximate
01:57PM 47.4001 -120.6009 90° East  Level FlightAware Approximate
01:58PM 47.4001 -120.4699 90° East  Level FlightAware Approximate
01:59PM 47.4000 -120.3389 90° East  Level FlightAware Approximate
02:00PM 47.3917 -120.2087 98° East  Level FlightAware Approximate
02:01PM 47.3825 -120.0786 92° East  Level FlightAware Approximate
02:02PM 47.3797 -119.9477 92° East  Level FlightAware Approximate
02:03PM 47.3767 -119.8168 92° East  Level FlightAware Approximate
02:04PM 47.3736 -119.6860 92° East  Level FlightAware Approximate
02:05PM 47.3703 -119.5551 92° East  Level FlightAware Approximate
02:06PM 47.3673 -119.4397 92° East  Level FlightAware Approximate
02:07PM 47.3704 -119.3244 87° East  Level FlightAware Approximate
02:08PM 47.3750 -119.2090 87° East  Level FlightAware Approximate
02:09PM 47.3794 -119.0937 87° East  Level FlightAware Approximate
02:10PM 47.3837 -118.9783 87° East  Level FlightAware Approximate
02:11PM 47.3879 -118.8630 87° East  Level FlightAware Approximate
02:12PM 47.3925 -118.7343 87° East  Level FlightAware Approximate
02:13PM 47.3969 -118.6056 87° East  Level FlightAware Approximate
02:14PM 47.4012 -118.4769 87° East  Level FlightAware Approximate
02:15PM 47.4053 -118.3481 87° East  Level FlightAware Approximate
02:16PM 47.4093 -118.2194 87° East  Level FlightAware Approximate
02:17PM 47.4131 -118.0906 87° East  Level FlightAware Approximate
02:18PM 47.4168 -117.9618 88° East  Level FlightAware Approximate
02:19PM 47.4200 -117.8330 88° East  Level FlightAware Approximate
02:20PM 47.4231 -117.7041 88° East  Level FlightAware Approximate
02:21PM 47.4260 -117.5753 88° East  Level FlightAware Approximate
02:22PM 47.4288 -117.4464 88° East  Level FlightAware Approximate
02:23PM 47.4315 -117.3175 88° East  Level FlightAware Approximate
02:24PM 47.4340 -117.1886 88° East  Level FlightAware Approximate
02:25PM 47.4364 -117.0597 88° East  Level FlightAware Approximate
02:26PM 47.4386 -116.9308 88° East  Level FlightAware Approximate
02:27PM 47.4407 -116.8018 89° East  Level FlightAware Approximate
02:28PM 47.4426 -116.6729 89° East  Level FlightAware Approximate
02:29PM 47.4444 -116.5439 89° East  Level FlightAware Approximate
02:30PM 47.4460 -116.4152 89° East  Level FlightAware Approximate
02:31PM 47.4476 -116.2865 89° East  Level FlightAware Approximate
02:32PM 47.4490 -116.1577 89° East  Level FlightAware Approximate
02:33PM 47.4500 -116.0290 90° East  Level FlightAware Approximate
02:34PM 47.4500 -115.9002 90° East  Level FlightAware Approximate
02:35PM 47.4501 -115.7703 90° East  Level FlightAware Approximate
02:36PM 47.4500 -115.6404 90° East  Level FlightAware Approximate
02:37PM 47.4177 -115.5204 110° East  Level FlightAware Approximate
02:38PM 47.3873 -115.3987 110° East  Level FlightAware Approximate
02:39PM 47.3568 -115.2770 110° East  Level FlightAware Approximate
02:40PM 47.3264 -115.1554 110° East  Level FlightAware Approximate
02:41PM 47.2949 -115.0346 116° Southeast  Level FlightAware Approximate
02:42PM 47.2667 -114.9127 90° East  Level FlightAware Approximate
02:43PM 47.2372 -114.7918 112° Southeast  Level FlightAware Approximate
02:44PM 47.2022 -114.6733 116° Southeast  Level FlightAware Approximate
02:45PM 47.1714 -114.5524 110° East  Level FlightAware Approximate
02:46PM 47.1229 -114.4457 126° Southeast  Level FlightAware Approximate
02:47PM 47.0689 -114.3440 129° Southeast  Level FlightAware Approximate
02:48PM 47.0124 -114.2458 146° Southeast  Level FlightAware Approximate
02:49PM 46.9523 -114.1545 126° Southeast  Level FlightAware Approximate
02:50PM 46.9163 -114.0906 146° Southeast  Level Estimated
02:51PM 46.9163 -114.0906 146° Southeast  Level Estimated
02:52PM 46.9163 -114.0906 146° Southeast  Level Estimated
02:53PM 46.9163 -114.0906 270° West  Level Estimated
02:54PM 46.9163 -114.0906 90° East  Level Estimated
02:55PM 46.9163 -114.0906 270° West  Level Estimated
02:56PM 46.9163 -114.0906 90° East  Level Estimated
02:57PM 46.9163 -114.0906 270° West  Level Estimated
02:58PM 46.9163 -114.0906 90° East  Level Estimated
02:59PM 46.9163 -114.0906 270° West  Level Estimated
03:00PM 46.9163 -114.0906 90° East  Level Estimated